createdAt,value
2023-01-13T00:00:56.707Z,0.20
2023-01-13T00:03:23.543Z,0.15
2023-01-13T00:05:50.273Z,1.02
2023-01-13T00:08:18.530Z,0.28
2023-01-13T00:10:47.016Z,0.30
2023-01-13T00:13:15.172Z,1.25
2023-01-13T00:15:41.978Z,0.75
2023-01-13T00:18:09.280Z,0.20
2023-01-13T00:20:36.456Z,0.60
2023-01-13T00:23:03.266Z,0.28
2023-01-13T00:25:31.354Z,0.17
2023-01-13T00:27:58.169Z,0.20
2023-01-13T00:30:24.974Z,0.25
2023-01-13T00:32:51.788Z,0.40
2023-01-13T00:35:18.538Z,0.57
2023-01-13T00:37:45.475Z,0.10
2023-01-13T00:40:12.739Z,1.33
2023-01-13T00:42:41.123Z,0.22
2023-01-13T00:45:08.360Z,0.20
2023-01-13T00:47:35.212Z,0.08
2023-01-13T00:50:02.010Z,0.32
2023-01-13T00:52:29.183Z,0.70
2023-01-13T00:54:55.906Z,0.45
2023-01-13T00:57:22.731Z,0.63
2023-01-13T00:59:51.109Z,0.00
2023-01-13T01:02:18.072Z,0.10
2023-01-13T01:04:44.823Z,0.03
2023-01-13T01:07:11.644Z,0.40
2023-01-13T01:09:38.413Z,0.20
2023-01-13T01:12:05.549Z,0.30
2023-01-13T01:14:33.830Z,0.65
2023-01-13T01:17:02.529Z,1.20
2023-01-13T01:19:29.288Z,0.38
2023-01-13T01:21:56.112Z,0.38
2023-01-13T01:24:22.854Z,0.28
2023-01-13T01:26:49.931Z,0.10
2023-01-13T01:29:16.766Z,0.10
2023-01-13T01:31:44.091Z,0.13
2023-01-13T01:34:12.302Z,0.20
2023-01-13T01:36:39.587Z,4.32
2023-01-13T01:39:06.708Z,2.47
2023-01-13T01:41:35.702Z,2.05
2023-01-13T01:44:08.258Z,0.85
2023-01-13T01:46:37.413Z,2.50
2023-01-13T01:49:14.879Z,0.60
2023-01-13T01:51:45.243Z,0.95
2023-01-13T01:54:18.029Z,2.95
2023-01-13T01:56:46.146Z,0.45
2023-01-13T01:59:14.118Z,1.45
2023-01-13T02:01:42.299Z,0.77
2023-01-13T02:04:14.594Z,2.08
2023-01-13T02:06:42.563Z,2.22
2023-01-13T02:09:10.678Z,0.40
2023-01-13T02:11:44.976Z,1.88
2023-01-13T02:14:12.600Z,3.03
2023-01-13T02:16:48.418Z,1.00
2023-01-13T02:19:36.140Z,1.30
2023-01-13T02:22:26.149Z,5.43
2023-01-13T02:25:39.525Z,0.88
2023-01-13T02:28:24.666Z,2.70
2023-01-13T02:30:59.148Z,0.85
2023-01-13T02:33:45.586Z,0.90
2023-01-13T02:36:23.697Z,1.17
2023-01-13T02:38:54.433Z,3.35
2023-01-13T02:41:27.426Z,0.88
2023-01-13T02:43:58.582Z,0.57
2023-01-13T02:46:30.209Z,1.92
2023-01-13T02:49:00.049Z,1.60
2023-01-13T02:51:29.622Z,0.93
2023-01-13T02:54:01.213Z,1.67
2023-01-13T02:56:29.411Z,4.20
2023-01-13T02:58:57.977Z,1.02
2023-01-13T03:01:26.328Z,0.57
2023-01-13T03:03:53.086Z,1.67
2023-01-13T03:06:35.629Z,0.88
2023-01-13T03:09:10.608Z,0.55
2023-01-13T03:11:50.708Z,4.05
2023-01-13T03:14:30.137Z,0.50
2023-01-13T03:17:14.250Z,1.23
2023-01-13T03:19:46.516Z,1.77
2023-01-13T03:22:21.862Z,4.72
2023-01-13T03:24:53.165Z,3.75
2023-01-13T03:27:25.471Z,2.95
2023-01-13T03:29:59.099Z,3.38
2023-01-13T03:32:32.349Z,1.20
2023-01-13T03:35:03.795Z,1.27
2023-01-13T03:37:34.836Z,1.80
2023-01-13T03:40:07.712Z,2.70
2023-01-13T03:42:36.695Z,1.50
2023-01-13T03:45:09.907Z,1.10
2023-01-13T03:47:42.139Z,2.17
2023-01-13T03:50:15.175Z,2.88
2023-01-13T03:52:44.545Z,1.13
2023-01-13T03:55:14.204Z,0.75
2023-01-13T03:57:46.806Z,3.78
2023-01-13T04:00:15.498Z,1.08
2023-01-13T04:02:51.506Z,38.10
2023-01-13T04:05:18.778Z,1.52
2023-01-13T04:07:55.006Z,1.30
2023-01-13T04:10:27.914Z,0.30
2023-01-13T04:12:59.669Z,2.30
2023-01-13T04:15:29.226Z,0.85
2023-01-13T04:18:32.270Z,2.45
2023-01-13T04:21:00.858Z,3.30
2023-01-13T04:23:28.394Z,1.88
2023-01-13T04:25:55.596Z,2.55
2023-01-13T04:28:22.974Z,0.70
2023-01-13T04:30:50.005Z,3.53
2023-01-13T04:33:19.398Z,1.08
2023-01-13T04:35:47.033Z,2.80
2023-01-13T04:38:15.112Z,4.40
2023-01-13T04:40:42.280Z,2.28
2023-01-13T04:43:08.834Z,2.75
2023-01-13T04:45:35.596Z,8.63
2023-01-13T04:48:02.572Z,3.95
2023-01-13T04:50:30.657Z,3.95
2023-01-13T04:52:57.290Z,5.35
2023-01-13T04:55:24.853Z,5.45
2023-01-13T04:57:51.670Z,6.05
2023-01-13T05:00:20.689Z,5.63
2023-01-13T05:02:49.217Z,6.22
2023-01-13T05:05:15.816Z,7.28
2023-01-13T05:07:44.010Z,3.13
2023-01-13T05:10:11.677Z,5.38
2023-01-13T05:12:38.350Z,4.68
2023-01-13T05:15:05.959Z,3.40
2023-01-13T05:17:32.906Z,5.45
2023-01-13T05:19:59.738Z,8.70
2023-01-13T05:22:26.306Z,5.35
2023-01-13T05:24:54.403Z,5.05
2023-01-13T05:27:20.974Z,5.63
2023-01-13T05:29:47.539Z,6.05
2023-01-13T05:32:14.224Z,7.65
2023-01-13T05:34:40.910Z,10.63
2023-01-13T05:37:07.422Z,8.95
2023-01-13T05:39:34.275Z,6.10
2023-01-13T05:42:02.131Z,5.93
2023-01-13T05:44:28.723Z,9.32
2023-01-13T05:46:55.434Z,9.35
2023-01-13T05:49:22.041Z,6.50
2023-01-13T05:51:48.612Z,4.65
2023-01-13T05:54:15.233Z,6.25
2023-01-13T05:56:41.736Z,8.20
2023-01-13T05:59:09.775Z,8.10
2023-01-13T06:01:36.366Z,10.13
2023-01-13T06:04:02.975Z,9.75
2023-01-13T06:06:29.533Z,8.32
2023-01-13T06:08:56.179Z,4.35
2023-01-13T06:11:22.686Z,8.40
2023-01-13T06:13:49.445Z,4.97
2023-01-13T06:16:17.719Z,7.60
2023-01-13T06:18:44.353Z,9.45
2023-01-13T06:21:10.893Z,9.82
2023-01-13T06:23:37.471Z,8.00
2023-01-13T06:26:08.425Z,7.05
2023-01-13T06:28:35.425Z,9.27
2023-01-13T06:31:04.681Z,7.90
2023-01-13T06:33:36.957Z,6.78
2023-01-13T06:36:10.073Z,10.85
2023-01-13T06:38:41.392Z,13.48
2023-01-13T06:41:08.448Z,7.38
2023-01-13T06:43:35.117Z,6.35
2023-01-13T06:46:01.980Z,8.32
2023-01-13T06:48:31.274Z,6.97
2023-01-13T06:50:59.302Z,7.50
2023-01-13T06:53:25.831Z,6.63
2023-01-13T06:55:52.400Z,7.88
2023-01-13T06:58:18.935Z,4.93
2023-01-13T07:00:45.756Z,6.35
2023-01-13T07:03:13.764Z,5.22
2023-01-13T07:05:42.418Z,2.65
2023-01-13T07:08:11.140Z,9.13
2023-01-13T07:10:38.722Z,6.63
2023-01-13T07:13:05.952Z,15.07
2023-01-13T07:15:32.632Z,5.90
2023-01-13T07:17:59.909Z,4.95
2023-01-13T07:20:26.805Z,8.88
2023-01-13T07:22:54.227Z,8.60
2023-01-13T07:25:22.608Z,10.38
2023-01-13T07:27:49.332Z,5.93
2023-01-13T07:30:16.279Z,4.43
2023-01-13T07:32:42.789Z,4.85
2023-01-13T07:35:09.766Z,6.43
2023-01-13T07:37:37.836Z,10.35
2023-01-13T07:40:05.928Z,7.93
2023-01-13T07:42:33.807Z,6.18
2023-01-13T07:45:00.568Z,6.25
2023-01-13T07:47:27.080Z,5.30
2023-01-13T07:49:53.700Z,4.90
2023-01-13T07:52:20.223Z,7.78
2023-01-13T07:54:46.773Z,5.45
2023-01-13T07:57:13.313Z,11.77
2023-01-13T07:59:41.284Z,4.75
2023-01-13T08:02:11.651Z,4.47
2023-01-13T08:04:38.715Z,5.10
2023-01-13T08:07:05.578Z,4.65
2023-01-13T08:09:32.541Z,6.05
2023-01-13T08:11:59.219Z,5.32
2023-01-13T08:14:25.865Z,4.28
2023-01-13T08:16:53.792Z,5.43
2023-01-13T08:19:20.437Z,2.83
2023-01-13T08:21:46.978Z,3.03
2023-01-13T08:24:13.711Z,3.22
2023-01-13T08:26:40.288Z,4.78
2023-01-13T08:29:06.902Z,7.65
2023-01-13T08:31:33.532Z,3.97
2023-01-13T08:34:01.495Z,2.53
2023-01-13T08:36:28.062Z,2.38
2023-01-13T08:38:54.654Z,5.57
2023-01-13T08:41:21.419Z,3.65
2023-01-13T08:43:47.991Z,5.82
2023-01-13T08:46:14.525Z,3.70
2023-01-13T08:48:41.163Z,4.40
2023-01-13T08:51:09.241Z,4.50
2023-01-13T08:53:36.031Z,3.00
2023-01-13T08:56:07.315Z,5.28
2023-01-13T08:58:33.938Z,10.40
2023-01-13T09:01:04.909Z,7.18
2023-01-13T09:03:31.742Z,5.47
2023-01-13T09:05:58.224Z,8.15
2023-01-13T09:08:26.168Z,5.10
2023-01-13T09:10:52.726Z,8.20
2023-01-13T09:13:19.302Z,8.43
2023-01-13T09:15:46.214Z,5.75
2023-01-13T09:18:13.208Z,10.38
2023-01-13T09:20:40.315Z,6.88
2023-01-13T09:23:10.066Z,6.65
2023-01-13T09:25:38.907Z,9.18
2023-01-13T09:28:05.736Z,6.18
2023-01-13T09:30:32.450Z,15.60
2023-01-13T09:32:59.487Z,8.85
2023-01-13T09:35:26.016Z,6.65
2023-01-13T09:37:52.686Z,11.80
2023-01-13T09:40:20.564Z,7.00
2023-01-13T09:42:54.607Z,10.18
2023-01-13T09:45:24.879Z,9.60
2023-01-13T09:47:56.696Z,16.15
2023-01-13T09:52:55.597Z,8.10
2023-01-13T09:55:27.373Z,6.32
2023-01-13T10:00:23.599Z,7.63
2023-01-13T10:03:14.085Z,12.63
2023-01-13T10:05:44.763Z,8.93
2023-01-13T10:08:13.234Z,10.38
2023-01-13T10:10:45.167Z,9.23
2023-01-13T10:13:19.229Z,7.82
2023-01-13T10:15:55.392Z,9.70
2023-01-13T10:18:28.031Z,10.52
2023-01-13T10:21:03.527Z,6.72
2023-01-13T10:23:52.864Z,10.50
2023-01-13T10:26:33.424Z,8.30
2023-01-13T10:29:01.507Z,8.63
2023-01-13T10:31:28.146Z,8.05
2023-01-13T10:33:59.536Z,7.88
2023-01-13T10:36:26.552Z,10.30
2023-01-13T10:38:53.197Z,4.60
2023-01-13T10:41:25.277Z,8.90
2023-01-13T10:44:02.620Z,6.22
2023-01-13T10:46:30.862Z,7.90
2023-01-13T10:48:59.316Z,9.82
2023-01-13T10:51:27.648Z,7.13
2023-01-13T10:53:57.636Z,10.98
2023-01-13T10:56:25.760Z,7.85
2023-01-13T10:58:52.795Z,12.80
2023-01-13T11:01:24.131Z,11.85
2023-01-13T11:03:51.513Z,13.82
2023-01-13T11:06:24.548Z,11.85
2023-01-13T11:08:53.882Z,6.32
2023-01-13T11:11:41.888Z,5.32
2023-01-13T11:14:19.248Z,11.30
2023-01-13T11:16:53.936Z,11.55
2023-01-13T11:19:24.410Z,8.30
2023-01-13T11:21:56.243Z,11.38
2023-01-13T11:26:59.128Z,8.38
2023-01-13T11:29:31.769Z,9.70
2023-01-13T11:32:10.404Z,15.27
2023-01-13T11:34:40.196Z,12.15
2023-01-13T11:37:14.893Z,11.57
2023-01-13T11:39:49.458Z,9.63
2023-01-13T11:42:23.633Z,9.00
2023-01-13T11:44:59.896Z,9.05
2023-01-13T11:47:28.042Z,14.30
2023-01-13T11:49:54.863Z,9.90
2023-01-13T11:52:27.835Z,9.43
2023-01-13T11:55:09.935Z,11.02
2023-01-13T11:57:52.601Z,10.60
2023-01-13T12:00:32.509Z,10.45
2023-01-13T12:03:24.323Z,10.63
2023-01-13T12:06:02.850Z,7.45
2023-01-13T12:08:45.564Z,13.43
2023-01-13T12:11:19.481Z,8.40
2023-01-13T12:14:06.169Z,9.10
2023-01-13T12:16:32.886Z,11.82
2023-01-13T12:19:24.531Z,8.23
2023-01-13T12:22:03.208Z,9.48
2023-01-13T12:24:37.661Z,7.93
2023-01-13T12:27:13.305Z,9.27
2023-01-13T12:29:40.298Z,11.88
2023-01-13T12:32:11.528Z,7.65
2023-01-13T12:34:53.400Z,4.88
2023-01-13T12:37:29.057Z,8.65
2023-01-13T12:40:15.034Z,9.48
2023-01-13T12:42:50.599Z,9.02
2023-01-13T12:45:28.040Z,8.57
2023-01-13T12:47:55.924Z,10.07
2023-01-13T12:50:41.333Z,6.97
2023-01-13T12:53:31.103Z,9.00
2023-01-13T12:56:36.637Z,9.00
2023-01-13T12:59:42.664Z,7.95
2023-01-13T13:02:43.179Z,4.72
2023-01-13T13:05:38.268Z,10.80
2023-01-13T13:08:15.627Z,10.05
2023-01-13T13:10:54.935Z,8.48
2023-01-13T13:13:41.151Z,8.80
2023-01-13T13:16:55.405Z,8.30
2023-01-13T13:19:41.052Z,7.03
2023-01-13T13:22:43.339Z,8.20
2023-01-13T13:25:25.811Z,8.90
2023-01-13T13:28:07.653Z,6.50
2023-01-13T13:30:36.628Z,5.93
2023-01-13T13:33:20.771Z,7.78
2023-01-13T13:36:02.313Z,9.50
2023-01-13T13:38:49.937Z,10.63
2023-01-13T13:41:21.259Z,9.93
2023-01-13T13:43:48.032Z,11.77
2023-01-13T13:46:26.543Z,17.73
2023-01-13T13:48:54.672Z,12.02
2023-01-13T13:51:27.731Z,9.35
2023-01-13T13:53:55.884Z,4.47
2023-01-13T13:56:27.431Z,10.50
2023-01-13T13:58:54.999Z,10.02
2023-01-13T14:01:24.627Z,7.50
2023-01-13T14:04:05.973Z,8.50
2023-01-13T14:06:32.989Z,9.27
2023-01-13T14:08:59.595Z,13.23
2023-01-13T14:11:29.542Z,8.63
2023-01-13T14:14:06.600Z,14.48
2023-01-13T14:16:36.229Z,11.07
2023-01-13T14:19:03.054Z,9.88
2023-01-13T14:21:30.691Z,9.57
2023-01-13T14:24:00.483Z,6.18
2023-01-13T14:26:32.190Z,7.30
2023-01-13T14:29:01.880Z,11.32
2023-01-13T14:31:29.605Z,15.00
2023-01-13T14:33:58.159Z,13.57
2023-01-13T14:36:34.788Z,7.85
2023-01-13T14:39:23.780Z,10.98
2023-01-13T14:41:52.565Z,42.60
2023-01-13T14:44:24.698Z,12.80
2023-01-13T14:46:52.100Z,9.50
2023-01-13T14:49:24.728Z,10.32
2023-01-13T14:51:52.276Z,10.80
2023-01-13T14:54:47.550Z,10.27
2023-01-13T14:57:23.631Z,15.98
2023-01-13T14:59:56.504Z,16.80
2023-01-13T15:03:00.913Z,8.30
2023-01-13T15:05:39.593Z,7.35
2023-01-13T15:08:25.751Z,10.52
2023-01-13T15:10:55.279Z,6.78
2023-01-13T15:13:27.291Z,7.25
2023-01-13T15:15:56.598Z,8.40
2023-01-13T15:18:23.691Z,10.90
2023-01-13T15:20:50.331Z,7.55
2023-01-13T15:23:17.286Z,11.55
2023-01-13T15:25:45.239Z,7.88
2023-01-13T15:28:17.275Z,6.20
2023-01-13T15:30:45.825Z,9.60
2023-01-13T15:33:13.890Z,7.38
2023-01-13T15:35:43.541Z,6.18
2023-01-13T15:38:12.046Z,6.30
2023-01-13T15:40:38.589Z,9.38
2023-01-13T15:43:05.173Z,8.15
2023-01-13T15:45:33.595Z,4.25
2023-01-13T15:48:02.420Z,6.05
2023-01-13T15:50:28.912Z,7.57
2023-01-13T15:52:55.382Z,7.22
2023-01-13T15:55:21.907Z,11.02
2023-01-13T15:57:49.987Z,9.23
2023-01-13T16:00:19.128Z,7.00
2023-01-13T16:02:45.793Z,8.88
2023-01-13T16:05:13.701Z,6.18
2023-01-13T16:07:40.870Z,11.85
2023-01-13T16:10:16.191Z,6.88
2023-01-13T16:12:42.782Z,8.40
2023-01-13T16:15:10.914Z,9.30
2023-01-13T16:17:37.504Z,11.48
2023-01-13T16:20:05.164Z,11.27
2023-01-13T16:22:33.370Z,9.20
2023-01-13T16:24:59.887Z,12.73
2023-01-13T16:27:26.422Z,11.00
2023-01-13T16:29:53.005Z,6.20
2023-01-13T16:32:19.801Z,10.57
2023-01-13T16:34:46.661Z,10.88
2023-01-13T16:37:18.904Z,10.93
2023-01-13T16:39:46.870Z,10.05
2023-01-13T16:42:13.407Z,9.27
2023-01-13T16:44:40.111Z,12.95
2023-01-13T16:47:06.868Z,7.75
2023-01-13T16:49:33.466Z,8.50
2023-01-13T16:51:59.957Z,9.90
2023-01-13T16:54:26.566Z,8.98
2023-01-13T16:56:54.415Z,9.07
2023-01-13T16:59:21.016Z,10.20
2023-01-13T17:01:47.679Z,8.80
2023-01-13T17:04:16.663Z,8.57
2023-01-13T17:06:57.052Z,7.50
2023-01-13T17:09:26.963Z,10.25
2023-01-13T17:11:55.433Z,12.30
2023-01-13T17:14:22.859Z,14.63
2023-01-13T17:16:50.449Z,8.20
2023-01-13T17:19:17.369Z,12.90
2023-01-13T17:21:43.885Z,11.57
2023-01-13T17:24:10.564Z,10.40
2023-01-13T17:26:39.021Z,11.30
2023-01-13T17:29:11.584Z,10.02
2023-01-13T17:31:38.320Z,12.25
2023-01-13T17:34:05.109Z,10.95
2023-01-13T17:36:32.262Z,11.95
2023-01-13T17:38:58.950Z,9.90
2023-01-13T17:41:26.069Z,11.13
2023-01-13T17:43:53.181Z,9.40
2023-01-13T17:46:22.069Z,12.05
2023-01-13T17:48:49.736Z,13.73
2023-01-13T17:51:17.712Z,6.43
2023-01-13T17:53:44.998Z,9.15
2023-01-13T17:56:13.959Z,14.55
2023-01-13T17:58:41.432Z,13.40
2023-01-13T18:01:09.652Z,11.82
2023-01-13T18:03:38.393Z,10.57
2023-01-13T18:06:07.104Z,15.90
2023-01-13T18:08:33.700Z,11.90
2023-01-13T18:11:00.474Z,13.48
2023-01-13T18:13:27.041Z,12.25
2023-01-13T18:15:59.762Z,16.13
2023-01-13T18:18:26.536Z,13.35
2023-01-13T18:20:54.772Z,10.35
2023-01-13T18:23:21.722Z,13.57
2023-01-13T18:25:48.214Z,14.25
2023-01-13T18:28:14.841Z,8.80
2023-01-13T18:30:41.359Z,12.68
2023-01-13T18:33:07.935Z,11.90
2023-01-13T18:35:34.630Z,13.00
2023-01-13T18:38:02.549Z,12.95
2023-01-13T18:40:29.040Z,14.45
2023-01-13T18:42:55.658Z,13.00
2023-01-13T18:45:24.243Z,14.60
2023-01-13T18:47:51.655Z,13.18
2023-01-13T18:50:18.384Z,11.52
2023-01-13T18:52:45.059Z,15.63
2023-01-13T18:55:12.995Z,12.93
2023-01-13T18:57:39.827Z,14.57
2023-01-13T19:00:08.384Z,10.73
2023-01-13T19:02:35.089Z,9.93
2023-01-13T19:05:01.761Z,9.18
2023-01-13T19:07:28.447Z,13.93
2023-01-13T19:09:55.662Z,9.38
2023-01-13T19:12:23.681Z,9.27
2023-01-13T19:14:50.374Z,11.10
2023-01-13T19:17:16.964Z,11.85
2023-01-13T19:19:45.372Z,7.40
2023-01-13T19:22:13.117Z,9.00
2023-01-13T19:24:39.959Z,14.05
2023-01-13T19:27:06.608Z,10.27
2023-01-13T19:29:34.709Z,11.13
2023-01-13T19:32:01.307Z,12.95
2023-01-13T19:34:28.133Z,17.20
2023-01-13T19:36:55.137Z,8.55
2023-01-13T19:39:21.969Z,10.65
2023-01-13T19:41:48.787Z,15.57
2023-01-13T19:44:15.459Z,12.55
2023-01-13T19:46:43.465Z,12.32
2023-01-13T19:49:10.051Z,14.35
2023-01-13T19:51:36.685Z,11.85
2023-01-13T19:54:03.425Z,9.98
2023-01-13T19:56:30.058Z,7.15
2023-01-13T19:58:56.602Z,7.35
2023-01-13T20:01:23.271Z,12.35
2023-01-13T20:03:51.203Z,13.52
2023-01-13T20:06:17.756Z,13.77
2023-01-13T20:08:44.238Z,11.73
2023-01-13T20:11:11.002Z,8.32
2023-01-13T20:13:37.495Z,15.77
2023-01-13T20:16:05.092Z,15.52
2023-01-13T20:18:32.310Z,11.23
2023-01-13T20:21:04.138Z,14.02
2023-01-13T20:25:57.445Z,9.68
2023-01-13T20:28:24.108Z,14.60
2023-01-13T20:30:50.619Z,6.78
2023-01-13T20:33:17.293Z,17.95
2023-01-13T20:35:43.796Z,13.82
2023-01-13T20:38:12.049Z,13.93
2023-01-13T20:40:38.595Z,8.73
2023-01-13T20:43:05.195Z,14.02
2023-01-13T20:45:31.773Z,12.48
2023-01-13T20:47:58.351Z,12.75
2023-01-13T20:50:24.843Z,13.10
2023-01-13T20:52:51.384Z,9.30
2023-01-13T20:55:19.342Z,11.43
2023-01-13T20:57:45.930Z,11.32
2023-01-13T21:00:13.112Z,12.95
2023-01-13T21:02:40.203Z,10.90
2023-01-13T21:05:07.115Z,10.52
2023-01-13T21:07:33.726Z,12.60
2023-01-13T21:10:00.393Z,10.85
2023-01-13T21:12:28.381Z,11.80
2023-01-13T21:14:54.883Z,13.10
2023-01-13T21:17:21.530Z,11.45
2023-01-13T21:19:48.025Z,15.80
2023-01-13T21:22:14.619Z,10.30
2023-01-13T21:24:41.156Z,9.75
2023-01-13T21:27:08.108Z,17.45
2023-01-13T21:29:36.003Z,6.47
2023-01-13T21:32:02.607Z,17.10
2023-01-13T21:34:29.296Z,14.60
2023-01-13T21:36:55.957Z,12.63
2023-01-13T21:39:22.486Z,17.58
2023-01-13T21:41:49.095Z,13.35
2023-01-13T21:44:17.109Z,10.73
2023-01-13T21:46:45.049Z,11.55
2023-01-13T21:49:11.537Z,12.57
2023-01-13T21:51:38.124Z,14.45
2023-01-13T21:54:04.697Z,18.63
2023-01-13T21:56:31.321Z,12.00
2023-01-13T21:58:57.851Z,10.50
2023-01-13T22:01:25.481Z,11.82
2023-01-13T22:03:53.480Z,16.80
2023-01-13T22:06:20.160Z,11.30
2023-01-13T22:08:46.726Z,11.32
2023-01-13T22:11:13.337Z,10.68
2023-01-13T22:13:40.114Z,16.30
2023-01-13T22:16:07.248Z,14.02
2023-01-13T22:18:33.824Z,16.27
2023-01-13T22:21:01.772Z,15.10
2023-01-13T22:23:28.490Z,9.88
2023-01-13T22:26:00.616Z,16.65
2023-01-13T22:28:27.189Z,12.73
2023-01-13T22:30:53.790Z,13.93
2023-01-13T22:33:20.345Z,16.23
2023-01-13T22:35:54.116Z,16.20
2023-01-13T22:38:22.068Z,19.85
2023-01-13T22:40:55.609Z,13.40
2023-01-13T22:43:22.230Z,17.17
2023-01-13T22:45:56.239Z,16.73
2023-01-13T22:48:22.893Z,15.88
2023-01-13T22:50:49.408Z,14.40
2023-01-13T22:53:16.056Z,10.63
2023-01-13T22:55:44.460Z,22.65
2023-01-13T22:58:11.085Z,12.10
2023-01-13T23:00:37.620Z,15.10
2023-01-13T23:03:05.306Z,15.25
2023-01-13T23:05:31.793Z,9.43
2023-01-13T23:07:58.539Z,11.02
2023-01-13T23:10:25.042Z,13.15
2023-01-13T23:12:52.941Z,14.98
2023-01-13T23:15:19.598Z,18.35
2023-01-13T23:17:48.526Z,9.73
2023-01-13T23:20:15.877Z,12.50
2023-01-13T23:22:42.431Z,22.40
2023-01-13T23:25:10.136Z,21.83
2023-01-13T23:27:37.276Z,13.63
2023-01-13T23:30:08.066Z,20.17
2023-01-13T23:32:35.158Z,12.65
2023-01-13T23:35:01.864Z,17.60
2023-01-13T23:37:28.620Z,15.65
2023-01-13T23:39:55.133Z,11.60
2023-01-13T23:42:21.721Z,13.98
2023-01-13T23:44:48.266Z,17.48
2023-01-13T23:47:16.233Z,19.52
2023-01-13T23:49:42.761Z,15.55
2023-01-13T23:52:09.464Z,15.85
2023-01-13T23:54:36.446Z,13.13
2023-01-13T23:57:03.046Z,15.77
2023-01-13T23:59:29.593Z,14.88
